Time;durP1;ratioP1;P1;durP2;ratioP2;P2;SDS_P1;SDS_P2;PMS_P1;PMS_P2;Temp;Humidity;BMP_temperature;BMP_pressure;BME280_temperature;BME280_humidity;BME280_pressure;Samples;Min_cycle;Max_cycle;Signal;HPM_P1;HPM_P2
2022/01/08 00:00:21;;;;;;;4.10;2.63;;;1.30;99.90;;;;;;5057179;28;20242;-88
2022/01/08 00:07:10;;;;;;;4.80;3.00;;;1.30;99.90;;;;;;5074863;28;20218;-88
2022/01/08 00:09:36;;;;;;;4.60;2.83;;;1.30;99.90;;;;;;5056762;28;20176;-88
2022/01/08 00:12:02;;;;;;;5.83;3.10;;;1.30;99.90;;;;;;5040423;28;20568;-88
2022/01/08 00:14:29;;;;;;;6.90;2.83;;;1.30;99.90;;;;;;5040103;28;20216;-88
2022/01/08 00:16:55;;;;;;;5.07;2.80;;;1.30;99.90;;;;;;5040066;28;20179;-88
2022/01/08 00:19:21;;;;;;;4.23;2.60;;;1.30;99.90;;;;;;5056729;28;20177;-88
2022/01/08 00:21:47;;;;;;;5.07;2.50;;;1.30;99.90;;;;;;5040300;28;20240;-88
2022/01/08 00:24:13;;;;;;;3.97;2.57;;;1.30;99.90;;;;;;5040265;28;20224;-88
2022/01/08 00:26:39;;;;;;;6.53;2.50;;;1.30;99.90;;;;;;5040004;28;20189;-88
2022/01/08 00:29:05;;;;;;;3.07;2.20;;;1.30;99.90;;;;;;5055949;28;20196;-88
2022/01/08 00:31:31;;;;;;;3.03;2.33;;;1.40;99.90;;;;;;5039104;28;20215;-88
2022/01/08 00:33:56;;;;;;;3.90;2.47;;;1.40;99.90;;;;;;5039625;28;20211;-88
2022/01/08 00:36:22;;;;;;;3.50;2.63;;;1.50;99.90;;;;;;5039493;28;20176;-88
2022/01/08 00:38:48;;;;;;;5.00;3.17;;;1.50;99.90;;;;;;5039404;28;20214;-88
2022/01/08 00:41:14;;;;;;;5.07;3.03;;;1.60;99.90;;;;;;5039514;28;20544;-88
2022/01/08 00:43:40;;;;;;;3.40;2.60;;;1.70;99.90;;;;;;5039675;28;20196;-88
2022/01/08 00:46:06;;;;;;;3.87;1.60;;;1.70;99.90;;;;;;5038560;28;20181;-88
2022/01/08 00:49:07;;;;;;;2.03;1.70;;;1.80;99.90;;;;;;5038758;28;20184;-88
2022/01/08 00:51:33;;;;;;;3.60;1.37;;;1.80;99.90;;;;;;5055895;28;20203;-89
2022/01/08 00:53:59;;;;;;;3.23;1.67;;;1.80;99.90;;;;;;5039458;28;20176;-88
2022/01/08 00:56:24;;;;;;;3.43;1.30;;;1.80;99.90;;;;;;5056081;28;20184;-88
2022/01/08 00:58:50;;;;;;;2.83;1.80;;;1.80;99.90;;;;;;5037977;28;20187;-88
2022/01/08 01:01:16;;;;;;;4.17;2.03;;;1.80;99.90;;;;;;5035690;28;20209;-88
2022/01/08 01:03:42;;;;;;;3.57;2.10;;;1.70;99.90;;;;;;5036097;28;20173;-88
2022/01/08 01:06:08;;;;;;;6.90;2.77;;;1.70;99.90;;;;;;5036105;28;20271;-88
2022/01/08 01:08:34;;;;;;;3.03;1.90;;;1.80;99.90;;;;;;5035565;28;20191;-88
2022/01/08 01:11:00;;;;;;;4.03;2.13;;;1.80;99.90;;;;;;5035703;28;20194;-88
2022/01/08 01:13:26;;;;;;;4.33;1.77;;;1.80;99.90;;;;;;5035965;28;20196;-88
2022/01/08 01:15:52;;;;;;;1.63;1.30;;;1.90;99.90;;;;;;5035644;28;20208;-88
2022/01/08 01:18:18;;;;;;;2.63;1.53;;;1.90;99.90;;;;;;5038617;28;20325;-88
2022/01/08 01:20:44;;;;;;;4.50;1.37;;;2.00;99.90;;;;;;5038852;28;20200;-88
2022/01/08 01:23:18;;;;;;;3.17;1.33;;;2.10;99.90;;;;;;5038831;28;20192;-88
2022/01/08 01:25:54;;;;;;;2.40;1.40;;;2.10;99.90;;;;;;5038776;28;20184;-88
2022/01/08 01:47:11;;;;;;;2.73;1.37;;;2.50;99.90;;;;;;5072092;28;20223;-88
2022/01/08 01:49:43;;;;;;;2.10;1.47;;;2.50;99.90;;;;;;5038309;28;20239;-88
2022/01/08 01:52:12;;;;;;;1.97;1.37;;;2.50;99.90;;;;;;5055053;28;20704;-88
2022/01/08 01:54:38;;;;;;;2.27;1.40;;;2.50;99.90;;;;;;5057464;28;20307;-88
2022/01/08 01:57:06;;;;;;;3.23;1.37;;;2.50;99.90;;;;;;5059501;28;20184;-88
2022/01/08 01:59:33;;;;;;;2.23;1.60;;;2.50;99.90;;;;;;5059027;28;20211;-88
2022/01/08 02:02:04;;;;;;;2.40;1.40;;;2.60;99.90;;;;;;5043128;28;20193;-88
2022/01/08 02:04:30;;;;;;;3.57;2.77;;;2.60;99.90;;;;;;5042518;28;20185;-88
2022/01/08 02:06:56;;;;;;;3.20;1.60;;;2.60;99.90;;;;;;5043218;28;20180;-88
2022/01/08 02:09:22;;;;;;;2.27;1.10;;;2.70;99.90;;;;;;5042669;28;20184;-88
2022/01/08 02:12:03;;;;;;;3.33;1.30;;;2.70;99.90;;;;;;5042793;28;20204;-88
2022/01/08 02:14:32;;;;;;;2.13;1.13;;;2.90;99.90;;;;;;5042363;28;20212;-88
2022/01/08 02:16:58;;;;;;;2.53;1.43;;;2.90;99.90;;;;;;5042650;28;20207;-88
2022/01/08 02:19:25;;;;;;;4.43;1.60;;;2.90;99.90;;;;;;5042592;28;20178;-88
2022/01/08 02:21:53;;;;;;;2.93;1.40;;;3.00;99.90;;;;;;5042566;28;20190;-88
2022/01/08 02:24:19;;;;;;;3.60;1.43;;;3.00;99.90;;;;;;5042489;28;20181;-87
2022/01/08 02:26:46;;;;;;;2.63;1.87;;;3.20;99.90;;;;;;5042194;28;20231;-88
2022/01/08 02:29:13;;;;;;;2.27;1.80;;;3.20;99.90;;;;;;5037805;28;20212;-88
2022/01/08 02:31:40;;;;;;;1.70;1.57;;;3.20;99.90;;;;;;5038846;28;20304;-88
2022/01/08 02:34:07;;;;;;;2.40;1.50;;;3.20;99.90;;;;;;5039080;28;20240;-88
2022/01/08 02:36:34;;;;;;;2.33;1.70;;;3.20;99.90;;;;;;5039053;28;20174;-88
2022/01/08 02:39:00;;;;;;;3.17;1.77;;;3.10;99.90;;;;;;5038500;28;20190;-88
2022/01/08 02:41:27;;;;;;;3.10;2.00;;;3.00;99.90;;;;;;5038501;28;20277;-88
2022/01/08 02:43:53;;;;;;;3.20;1.80;;;2.90;99.90;;;;;;5038579;28;20186;-88
2022/01/08 02:46:20;;;;;;;3.57;2.00;;;2.80;99.90;;;;;;5038399;28;20553;-88
2022/01/08 02:48:46;;;;;;;2.70;1.90;;;2.80;99.90;;;;;;5038585;28;20197;-88
2022/01/08 02:51:12;;;;;;;4.63;2.00;;;2.80;99.90;;;;;;5038781;28;20194;-88
2022/01/08 02:53:47;;;;;;;2.57;2.07;;;2.80;99.90;;;;;;5037358;28;20174;-88
2022/01/08 02:56:16;;;;;;;3.83;2.50;;;2.70;99.90;;;;;;5019552;28;20227;-88
2022/01/08 02:58:42;;;;;;;2.77;2.13;;;2.70;99.90;;;;;;5035718;28;20181;-88
2022/01/08 03:01:18;;;;;;;3.37;1.77;;;2.70;99.90;;;;;;5035291;28;20206;-88
2022/01/08 03:03:44;;;;;;;4.60;2.20;;;2.80;99.90;;;;;;5038136;28;20212;-88
2022/01/08 03:06:10;;;;;;;3.37;1.90;;;2.80;99.90;;;;;;5021493;28;20213;-88
2022/01/08 03:08:35;;;;;;;3.33;2.07;;;2.80;99.90;;;;;;5037951;28;20182;-88
2022/01/08 03:11:02;;;;;;;3.50;2.00;;;2.80;99.90;;;;;;5021442;28;20292;-88
2022/01/08 03:13:28;;;;;;;3.23;2.20;;;2.70;99.90;;;;;;5021339;28;20252;-88
2022/01/08 03:15:54;;;;;;;3.13;2.30;;;2.70;99.90;;;;;;5021424;28;20205;-88
2022/01/08 03:18:19;;;;;;;4.63;2.57;;;2.70;99.90;;;;;;5021525;28;20695;-88
2022/01/08 03:20:59;;;;;;;4.10;2.27;;;2.70;99.90;;;;;;5021509;28;20190;-88
2022/01/08 03:23:34;;;;;;;4.13;1.87;;;2.70;99.90;;;;;;5037957;28;20170;-88
2022/01/08 03:25:59;;;;;;;3.33;2.20;;;2.70;99.90;;;;;;5037879;28;20168;-88
2022/01/08 03:28:25;;;;;;;2.77;2.17;;;2.70;99.90;;;;;;5021171;28;20201;-88
2022/01/08 03:30:51;;;;;;;3.80;2.50;;;2.70;99.90;;;;;;5038425;28;20235;-88
2022/01/08 03:33:17;;;;;;;3.53;2.20;;;2.70;99.90;;;;;;5040932;28;20211;-88
2022/01/08 03:35:43;;;;;;;3.20;2.23;;;2.70;99.90;;;;;;5040767;28;20760;-88
2022/01/08 03:38:09;;;;;;;2.60;2.00;;;2.80;99.90;;;;;;5040615;28;20252;-88
2022/01/08 03:40:35;;;;;;;3.10;2.30;;;2.80;99.90;;;;;;5040706;28;20185;-87
2022/01/08 03:43:00;;;;;;;2.30;2.10;;;2.80;99.90;;;;;;5041025;28;20523;-88
2022/01/08 03:45:26;;;;;;;3.87;1.90;;;2.80;99.90;;;;;;5040928;28;20177;-88
2022/01/08 03:48:17;;;;;;;2.47;1.90;;;2.90;99.90;;;;;;5040493;28;20180;-88
2022/01/08 03:50:41;;;;;;;4.03;2.00;;;2.90;99.90;;;;;;5056856;28;20763;-88
2022/01/08 03:53:07;;;;;;;2.30;1.63;;;2.90;99.90;;;;;;5041047;28;20272;-88
2022/01/08 03:55:32;;;;;;;3.07;1.87;;;2.90;99.90;;;;;;5040421;28;20205;-88
2022/01/08 03:57:58;;;;;;;1.97;1.77;;;2.90;99.90;;;;;;5040435;28;20173;-88
2022/01/08 04:00:24;;;;;;;2.53;1.50;;;2.90;99.90;;;;;;5040400;28;20184;-88
2022/01/08 04:02:52;;;;;;;1.53;1.40;;;2.80;99.90;;;;;;5040262;28;20177;-88
2022/01/08 04:05:18;;;;;;;1.83;1.60;;;2.80;99.90;;;;;;5056925;28;20181;-88
2022/01/08 04:07:44;;;;;;;1.83;1.60;;;2.80;99.90;;;;;;5040520;28;20189;-88
2022/01/08 04:10:10;;;;;;;2.20;1.57;;;2.90;99.90;;;;;;5040173;28;20184;-88
2022/01/08 04:12:46;;;;;;;3.23;2.03;;;2.90;99.90;;;;;;5040064;28;20561;-88
2022/01/08 04:17:52;;;;;;;1.30;1.20;;;2.90;99.90;;;;;;5055044;28;20177;-88
2022/01/08 04:20:19;;;;;;;1.30;1.20;;;2.90;99.90;;;;;;5040180;28;20173;-88
2022/01/08 04:22:48;;;;;;;1.23;1.10;;;3.00;99.90;;;;;;5040026;28;20203;-88
2022/01/08 04:25:19;;;;;;;1.40;1.30;;;3.00;99.90;;;;;;5039934;28;20279;-88
2022/01/08 04:27:45;;;;;;;1.07;1.00;;;3.00;99.90;;;;;;5039542;28;20189;-88
2022/01/08 04:30:11;;;;;;;1.30;1.20;;;3.00;99.90;;;;;;5027783;28;20194;-88
2022/01/08 04:32:37;;;;;;;2.13;1.03;;;3.00;99.90;;;;;;5036431;28;20284;-88
2022/01/08 04:35:03;;;;;;;1.33;1.23;;;3.10;99.90;;;;;;5036295;28;20277;-88
2022/01/08 04:37:30;;;;;;;1.23;1.13;;;3.10;99.90;;;;;;5036433;28;20231;-88
2022/01/08 04:39:56;;;;;;;1.70;1.43;;;3.00;99.90;;;;;;5036142;28;20182;-88
2022/01/08 04:42:22;;;;;;;1.10;1.00;;;3.00;99.90;;;;;;5036295;28;20193;-88
2022/01/08 04:44:48;;;;;;;0.93;0.90;;;2.90;99.90;;;;;;5036415;28;20519;-88
2022/01/08 04:47:14;;;;;;;1.63;1.10;;;2.80;99.90;;;;;;5036140;28;20240;-88
2022/01/08 04:49:40;;;;;;;1.40;1.30;;;2.80;99.90;;;;;;5035822;28;20277;-88
2022/01/08 04:52:06;;;;;;;2.40;1.43;;;2.70;99.90;;;;;;5036298;28;20294;-88
2022/01/08 04:54:32;;;;;;;1.80;1.30;;;2.70;99.90;;;;;;5036239;28;20217;-88
2022/01/08 04:56:58;;;;;;;1.73;1.40;;;2.70;99.90;;;;;;5036245;28;20178;-87
2022/01/08 04:59:24;;;;;;;1.87;1.30;;;2.70;99.90;;;;;;5041182;28;20287;-88
2022/01/08 05:02:01;;;;;;;1.30;1.20;;;2.70;99.90;;;;;;5054862;28;20219;-88
2022/01/08 05:04:27;;;;;;;1.23;1.13;;;2.70;99.90;;;;;;5039136;28;20181;-88
2022/01/08 05:06:53;;;;;;;1.80;1.37;;;2.70;99.90;;;;;;5038864;28;20227;-88
2022/01/08 05:09:19;;;;;;;2.50;1.27;;;2.70;99.90;;;;;;5038827;28;20177;-88
2022/01/08 05:11:46;;;;;;;1.10;1.00;;;2.70;99.90;;;;;;5038993;28;20201;-88
2022/01/08 05:14:12;;;;;;;2.17;1.20;;;2.80;99.90;;;;;;5038918;28;20244;-88
2022/01/08 05:16:39;;;;;;;1.77;1.17;;;2.80;99.90;;;;;;5039364;28;20256;-87
2022/01/08 05:19:08;;;;;;;1.20;1.10;;;2.80;99.90;;;;;;5038483;28;20220;-88
2022/01/08 05:21:38;;;;;;;1.10;1.00;;;2.80;99.90;;;;;;5038656;28;20201;-88
2022/01/08 05:24:04;;;;;;;3.37;1.00;;;2.80;99.90;;;;;;5039058;28;20173;-87
2022/01/08 05:26:30;;;;;;;0.80;0.80;;;2.80;99.90;;;;;;5039002;28;20177;-88
2022/01/08 05:28:56;;;;;;;1.07;0.60;;;2.80;99.90;;;;;;5036205;28;20193;-88
2022/01/08 05:31:23;;;;;;;0.50;0.50;;;2.80;99.90;;;;;;5035391;28;20202;-88
2022/01/08 05:33:51;;;;;;;0.40;0.40;;;2.80;99.90;;;;;;5034856;28;20182;-88
2022/01/08 05:36:17;;;;;;;4.27;2.47;;;2.80;99.90;;;;;;5034691;28;20220;-88
2022/01/08 05:38:43;;;;;;;10.00;6.03;;;2.80;99.90;;;;;;5034489;28;20185;-87
2022/01/08 05:41:09;;;;;;;1.67;1.40;;;2.80;99.90;;;;;;5034986;28;20194;-87
2022/01/08 05:43:35;;;;;;;1.07;0.97;;;2.90;99.90;;;;;;5035014;28;20189;-88
2022/01/08 05:46:01;;;;;;;0.40;0.40;;;2.90;99.90;;;;;;5035397;28;20185;-88
2022/01/08 05:48:27;;;;;;;0.47;0.33;;;2.90;99.90;;;;;;5034874;28;20189;-88
2022/01/08 05:50:53;;;;;;;0.37;0.37;;;2.80;99.90;;;;;;5035273;28;20295;-88
2022/01/08 05:53:21;;;;;;;0.73;0.70;;;2.80;99.90;;;;;;5035279;28;20182;-88
2022/01/08 05:55:49;;;;;;;0.60;0.60;;;2.80;99.90;;;;;;5035060;28;20205;-88
2022/01/08 05:58:15;;;;;;;0.50;0.50;;;2.80;99.90;;;;;;5035017;28;20177;-88
2022/01/08 06:00:41;;;;;;;1.00;1.00;;;2.80;99.90;;;;;;5035061;28;20212;-88
2022/01/08 06:03:06;;;;;;;2.27;0.93;;;2.80;99.90;;;;;;5035308;28;20625;-88
2022/01/08 06:05:32;;;;;;;1.20;1.10;;;2.80;99.90;;;;;;5035133;28;20188;-88
2022/01/08 06:07:58;;;;;;;1.13;1.03;;;2.70;99.90;;;;;;5018526;28;20181;-88
2022/01/08 06:10:24;;;;;;;0.50;0.50;;;2.70;99.90;;;;;;5034781;28;20213;-88
2022/01/08 06:12:53;;;;;;;0.40;0.40;;;2.70;99.90;;;;;;5035155;28;20186;-88
2022/01/08 06:15:19;;;;;;;0.60;0.60;;;2.70;99.90;;;;;;5035017;28;20217;-88
2022/01/08 06:17:45;;;;;;;1.20;0.57;;;2.70;99.90;;;;;;5034846;28;20174;-88
2022/01/08 06:20:12;;;;;;;0.50;0.50;;;2.60;99.90;;;;;;5034951;28;20185;-88
2022/01/08 06:22:37;;;;;;;1.80;0.73;;;2.60;99.90;;;;;;5034768;28;20205;-88
2022/01/08 06:25:04;;;;;;;0.83;0.50;;;2.60;99.90;;;;;;5035071;28;20216;-88
2022/01/08 06:27:30;;;;;;;1.13;0.67;;;2.50;99.90;;;;;;5035136;28;20259;-88
2022/01/08 06:29:56;;;;;;;0.53;0.40;;;2.50;99.90;;;;;;5044462;28;20193;-88
2022/01/08 06:32:22;;;;;;;0.93;0.60;;;2.50;99.90;;;;;;5038018;28;20205;-88
2022/01/08 06:34:49;;;;;;;2.30;1.30;;;2.50;99.90;;;;;;5037859;28;20217;-88
2022/01/08 06:37:15;;;;;;;1.40;1.30;;;2.50;99.90;;;;;;5038073;28;20204;-88
2022/01/08 06:39:41;;;;;;;2.17;1.20;;;2.40;99.90;;;;;;5038147;28;20185;-88
2022/01/08 06:42:07;;;;;;;1.50;1.20;;;2.40;99.90;;;;;;5041946;28;20189;-88
2022/01/08 06:44:32;;;;;;;1.23;1.13;;;2.30;99.90;;;;;;5042082;28;20185;-88
2022/01/08 06:46:58;;;;;;;1.90;1.50;;;2.30;99.90;;;;;;5041901;28;20291;-88
2022/01/08 06:49:24;;;;;;;5.10;2.97;;;2.30;99.90;;;;;;5041511;28;20212;-88
2022/01/08 06:51:50;;;;;;;13.50;5.80;;;2.30;99.90;;;;;;5039986;28;20216;-88
2022/01/08 06:54:16;;;;;;;6.63;4.33;;;2.20;99.90;;;;;;5041383;28;20180;-88
2022/01/08 06:56:42;;;;;;;4.60;2.80;;;2.10;99.90;;;;;;5041398;28;20205;-88
2022/01/08 06:59:08;;;;;;;3.03;2.13;;;2.10;99.90;;;;;;5041167;28;20177;-88
2022/01/08 07:01:34;;;;;;;3.70;3.30;;;2.10;99.90;;;;;;5041157;28;20201;-88
2022/01/08 07:04:01;;;;;;;3.43;2.23;;;2.10;99.90;;;;;;5041600;28;20314;-88
2022/01/08 07:06:28;;;;;;;1.97;1.80;;;2.10;99.90;;;;;;5057884;28;20189;-88
2022/01/08 07:08:54;;;;;;;2.00;1.40;;;2.00;99.90;;;;;;5041161;28;20181;-88
2022/01/08 07:11:20;;;;;;;3.90;2.57;;;2.10;99.90;;;;;;5041507;28;20727;-88
2022/01/08 07:13:46;;;;;;;3.00;2.30;;;2.00;99.90;;;;;;5041446;28;20188;-88
2022/01/08 07:16:12;;;;;;;4.17;2.90;;;2.10;99.90;;;;;;5040405;28;20737;-88
2022/01/08 07:18:38;;;;;;;4.40;2.70;;;2.10;99.90;;;;;;5056028;28;20185;-89
2022/01/08 07:21:03;;;;;;;4.00;2.80;;;2.10;99.90;;;;;;5040464;28;20201;-88
2022/01/08 07:23:29;;;;;;;2.63;2.10;;;2.10;99.90;;;;;;5041170;28;20184;-88
2022/01/08 07:25:55;;;;;;;3.03;2.10;;;2.10;99.90;;;;;;5040959;28;20189;-88
2022/01/08 07:28:21;;;;;;;3.00;2.00;;;2.10;99.90;;;;;;5040972;28;20287;-88
2022/01/08 07:30:47;;;;;;;2.93;1.90;;;2.10;99.90;;;;;;5024409;28;20201;-88
2022/01/08 07:33:13;;;;;;;4.17;2.30;;;2.10;99.90;;;;;;5037764;28;20185;-88
2022/01/08 07:35:39;;;;;;;2.80;1.93;;;2.10;99.90;;;;;;5037538;28;20206;-88
2022/01/08 07:38:05;;;;;;;3.77;2.43;;;2.10;99.90;;;;;;5037394;28;20182;-88
2022/01/08 07:40:31;;;;;;;3.63;2.53;;;2.10;99.90;;;;;;5037662;28;20185;-88
2022/01/08 07:42:57;;;;;;;3.87;2.60;;;2.10;99.90;;;;;;5037499;28;20178;-88
2022/01/08 07:45:23;;;;;;;3.03;1.97;;;2.10;99.90;;;;;;5037593;28;20265;-88
2022/01/08 07:47:49;;;;;;;7.17;3.10;;;2.10;99.90;;;;;;5036976;28;20202;-88
2022/01/08 07:50:15;;;;;;;4.30;3.00;;;2.10;99.90;;;;;;5037268;28;20234;-88
2022/01/08 07:52:42;;;;;;;4.47;3.03;;;2.10;99.90;;;;;;5036256;28;20220;-88
2022/01/08 07:55:09;;;;;;;3.77;2.33;;;2.10;99.90;;;;;;5037145;28;20227;-88
2022/01/08 07:57:35;;;;;;;2.60;1.87;;;2.10;99.90;;;;;;5037174;28;20644;-88
2022/01/08 08:00:01;;;;;;;6.33;2.00;;;2.10;99.90;;;;;;5037062;28;20276;-88
2022/01/08 08:02:38;;;;;;;3.40;1.97;;;2.00;99.90;;;;;;5038611;28;20284;-88
2022/01/08 08:05:04;;;;;;;2.93;1.63;;;2.00;99.90;;;;;;5037071;28;20225;-88
2022/01/08 08:07:37;;;;;;;3.50;1.80;;;2.00;99.90;;;;;;5037130;28;20178;-88
2022/01/08 08:10:12;;;;;;;2.10;1.90;;;1.90;99.90;;;;;;5037023;28;20170;-88
2022/01/08 08:12:39;;;;;;;5.70;2.37;;;1.90;99.90;;;;;;5037390;28;20194;-88
2022/01/08 08:15:06;;;;;;;2.87;2.33;;;1.90;99.90;;;;;;5036625;28;20209;-88
2022/01/08 08:17:33;;;;;;;2.97;2.13;;;1.90;99.90;;;;;;5037275;28;20178;-88
2022/01/08 08:20:00;;;;;;;4.77;3.17;;;1.90;99.90;;;;;;5036811;28;20240;-88
2022/01/08 08:22:30;;;;;;;3.53;2.43;;;1.90;99.90;;;;;;5034258;28;20225;-88
2022/01/08 08:25:19;;;;;;;3.63;2.27;;;1.90;99.90;;;;;;5034432;28;20190;-88
2022/01/08 08:27:47;;;;;;;3.93;2.23;;;1.80;99.90;;;;;;5034079;28;20196;-88
2022/01/08 08:30:16;;;;;;;3.17;2.07;;;1.80;99.90;;;;;;5046388;28;20273;-88
2022/01/08 08:32:45;;;;;;;3.47;2.43;;;1.80;99.90;;;;;;5038318;28;20189;-88
2022/01/08 08:35:11;;;;;;;4.73;2.00;;;1.80;99.90;;;;;;5073156;28;20234;-88
2022/01/08 08:37:38;;;;;;;5.37;3.07;;;1.80;99.90;;;;;;5072725;28;20177;-89
2022/01/08 08:40:04;;;;;;;4.03;2.80;;;1.80;99.90;;;;;;5072791;28;20184;-88
2022/01/08 08:42:30;;;;;;;4.60;2.47;;;1.80;99.90;;;;;;5056122;28;20197;-88
2022/01/08 08:44:56;;;;;;;3.73;2.90;;;1.80;99.90;;;;;;5072914;28;20188;-88
2022/01/08 08:47:22;;;;;;;6.67;3.60;;;1.80;99.90;;;;;;5072789;28;20184;-88
2022/01/08 08:49:48;;;;;;;3.20;2.50;;;1.80;99.90;;;;;;5072510;28;20268;-88
2022/01/08 08:52:14;;;;;;;4.70;2.37;;;1.80;99.90;;;;;;5072427;28;20292;-88
2022/01/08 08:54:41;;;;;;;2.60;1.57;;;1.80;99.90;;;;;;5072598;28;20338;-88
2022/01/08 08:57:08;;;;;;;2.20;1.80;;;1.80;99.90;;;;;;5072874;28;20212;-88
2022/01/08 08:59:35;;;;;;;4.30;2.60;;;1.80;99.90;;;;;;5068684;28;20189;-88
2022/01/08 09:02:01;;;;;;;4.60;3.00;;;1.90;99.90;;;;;;5039490;28;20201;-88
2022/01/08 09:04:27;;;;;;;5.10;2.87;;;1.90;99.90;;;;;;5039020;28;20226;-88
2022/01/08 09:06:53;;;;;;;4.83;3.20;;;1.90;99.90;;;;;;5039642;28;20180;-88
2022/01/08 09:09:20;;;;;;;5.23;3.77;;;1.80;99.90;;;;;;5055624;28;20183;-88
2022/01/08 09:11:46;;;;;;;3.67;2.60;;;1.80;99.90;;;;;;5039435;28;20201;-88
2022/01/08 09:14:11;;;;;;;4.73;2.80;;;1.80;99.90;;;;;;5039180;28;20187;-88
2022/01/08 09:16:44;;;;;;;3.00;2.33;;;1.80;99.90;;;;;;5039111;28;20229;-88
2022/01/08 09:19:10;;;;;;;3.50;2.40;;;1.80;99.90;;;;;;5039228;28;20170;-88
2022/01/08 09:21:36;;;;;;;4.17;2.83;;;1.80;99.90;;;;;;5038828;28;20201;-88
2022/01/08 09:24:02;;;;;;;3.53;1.73;;;1.90;99.90;;;;;;5038993;28;20191;-88
2022/01/08 09:26:27;;;;;;;3.57;2.77;;;1.90;99.90;;;;;;5039190;28;20321;-88
2022/01/08 09:28:53;;;;;;;8.20;4.10;;;1.90;99.90;;;;;;5039054;28;20203;-88
2022/01/08 09:31:19;;;;;;;5.43;2.97;;;1.90;99.90;;;;;;5039129;28;20309;-88
2022/01/08 09:33:45;;;;;;;6.13;3.57;;;1.90;99.90;;;;;;5038861;28;20290;-88
2022/01/08 09:36:11;;;;;;;3.87;3.00;;;1.90;99.90;;;;;;5038753;28;20296;-88
2022/01/08 09:38:37;;;;;;;4.40;3.03;;;2.10;99.90;;;;;;5038632;28;20311;-88
2022/01/08 09:41:03;;;;;;;4.57;2.77;;;2.20;99.90;;;;;;5038698;28;20193;-88
2022/01/08 09:43:29;;;;;;;4.63;3.00;;;2.40;99.90;;;;;;5038949;28;20191;-88
2022/01/08 09:45:55;;;;;;;3.50;2.33;;;2.60;99.90;;;;;;5038467;28;20185;-88
2022/01/08 09:48:21;;;;;;;2.60;2.30;;;2.80;99.90;;;;;;5038648;28;20181;-88
2022/01/08 09:50:47;;;;;;;3.20;2.10;;;3.00;99.90;;;;;;5038552;28;20208;-88
2022/01/08 09:53:13;;;;;;;4.97;2.60;;;3.10;99.90;;;;;;5038590;28;20272;-87
2022/01/08 09:55:39;;;;;;;6.57;3.47;;;3.20;99.90;;;;;;5038675;28;20220;-88
2022/01/08 09:58:05;;;;;;;7.43;4.43;;;3.20;99.90;;;;;;5038369;28;20183;-88
2022/01/08 10:04:28;;;;;;;8.03;3.77;;;3.20;99.90;;;;;;5073096;28;20160;-88
2022/01/08 10:07:20;;;;;;;6.70;3.83;;;3.10;99.90;;;;;;5038560;28;20176;-88
2022/01/08 10:10:12;;;;;;;7.17;2.70;;;3.10;99.90;;;;;;5027819;28;20271;-88
2022/01/08 10:12:48;;;;;;;4.77;3.50;;;3.00;99.90;;;;;;5038614;28;20204;-88
2022/01/08 10:18:07;;;;;;;2.13;1.70;;;2.90;99.90;;;;;;5059044;28;20204;-88
2022/01/08 10:20:36;;;;;;;5.20;3.07;;;2.90;99.90;;;;;;5041934;28;20274;-88
2022/01/08 10:23:22;;;;;;;5.43;2.10;;;2.90;99.90;;;;;;5041946;28;20264;-88
2022/01/08 10:25:57;;;;;;;5.80;2.03;;;2.90;99.90;;;;;;5042166;28;20200;-88
2022/01/08 10:28:38;;;;;;;2.13;1.40;;;2.80;99.90;;;;;;5042129;28;20199;-88
2022/01/08 10:31:13;;;;;;;6.60;2.03;;;2.80;99.90;;;;;;5022867;28;20205;-88
2022/01/08 10:33:41;;;;;;;2.70;1.73;;;2.90;99.90;;;;;;5022318;28;20181;-88
2022/01/08 10:36:07;;;;;;;4.40;1.80;;;2.90;99.90;;;;;;5038614;28;20206;-88
2022/01/08 10:38:33;;;;;;;4.30;1.97;;;3.00;99.90;;;;;;5038724;28;20182;-88
2022/01/08 10:41:01;;;;;;;2.30;1.50;;;3.00;99.90;;;;;;5038204;28;20198;-88
2022/01/08 10:43:30;;;;;;;3.83;2.07;;;3.10;99.90;;;;;;5038854;28;20189;-88
2022/01/08 10:46:07;;;;;;;5.07;1.50;;;3.20;99.90;;;;;;5038520;28;20265;-88
2022/01/08 10:48:33;;;;;;;3.80;1.53;;;3.20;99.90;;;;;;5038548;28;20182;-88
2022/01/08 10:51:22;;;;;;;3.70;1.20;;;3.20;99.90;;;;;;5038858;28;20209;-88
2022/01/08 10:53:52;;;;;;;2.13;1.67;;;3.30;99.90;;;;;;5038749;28;20181;-88
2022/01/08 10:56:23;;;;;;;2.13;1.77;;;3.40;99.90;;;;;;5021820;28;20213;-88
2022/01/08 10:58:52;;;;;;;4.10;1.40;;;3.30;99.90;;;;;;5037982;28;20185;-88
2022/01/08 11:01:44;;;;;;;4.57;1.90;;;3.30;99.90;;;;;;5038469;28;20198;-88
2022/01/08 11:04:13;;;;;;;2.37;1.30;;;3.30;99.90;;;;;;5038173;28;20252;-88
2022/01/08 11:06:51;;;;;;;2.47;1.50;;;3.30;99.90;;;;;;5038238;28;20207;-88
2022/01/08 11:09:17;;;;;;;5.17;1.77;;;3.30;99.90;;;;;;5054620;28;20182;-88
2022/01/08 11:11:44;;;;;;;3.00;2.00;;;3.20;99.90;;;;;;5037988;28;20232;-88
2022/01/08 11:14:21;;;;;;;3.17;2.37;;;3.20;99.90;;;;;;5038088;28;20228;-88
2022/01/08 11:16:53;;;;;;;4.83;2.73;;;3.20;99.90;;;;;;5038288;28;20166;-88
2022/01/08 11:19:20;;;;;;;6.80;2.20;;;3.20;99.90;;;;;;5037523;28;20170;-88
2022/01/08 11:21:48;;;;;;;5.17;2.30;;;3.20;99.90;;;;;;5037183;28;20201;-88
2022/01/08 11:24:17;;;;;;;4.03;2.10;;;3.20;99.90;;;;;;5038035;28;20193;-88
2022/01/08 11:26:45;;;;;;;5.47;2.00;;;3.10;99.90;;;;;;5035944;28;20185;-88
2022/01/08 11:29:11;;;;;;;6.50;3.10;;;3.20;99.90;;;;;;5041317;28;20196;-88
2022/01/08 11:31:37;;;;;;;4.10;1.93;;;3.20;99.90;;;;;;5040746;28;20204;-88
2022/01/08 11:34:11;;;;;;;5.30;2.10;;;3.30;99.90;;;;;;5057499;28;20211;-88
2022/01/08 11:36:37;;;;;;;3.53;1.80;;;3.30;99.90;;;;;;5041067;28;20201;-88
2022/01/08 11:39:04;;;;;;;3.27;2.07;;;3.40;99.90;;;;;;5040640;28;20178;-88
2022/01/08 11:41:31;;;;;;;3.00;1.90;;;3.50;99.90;;;;;;5040766;28;20205;-88
2022/01/08 11:43:57;;;;;;;4.33;2.53;;;3.70;99.90;;;;;;5040996;28;20174;-88
2022/01/08 11:46:25;;;;;;;1.90;1.47;;;3.70;99.90;;;;;;5040966;28;20185;-88
2022/01/08 11:48:57;;;;;;;1.83;1.60;;;3.80;99.90;;;;;;5040121;28;20181;-88
2022/01/08 11:51:24;;;;;;;2.43;1.50;;;3.80;99.90;;;;;;5040472;28;20205;-88
2022/01/08 11:53:52;;;;;;;6.47;1.83;;;3.90;99.90;;;;;;5040481;28;20188;-88
2022/01/08 11:56:21;;;;;;;2.77;1.60;;;3.80;99.90;;;;;;5040599;28;20255;-88
2022/01/08 12:02:07;;;;;;;3.80;1.50;;;3.70;99.90;;;;;;5073588;28;20255;-88
2022/01/08 12:04:34;;;;;;;2.53;1.13;;;3.70;99.90;;;;;;5057003;28;20188;-88
2022/01/08 12:07:29;;;;;;;4.10;1.67;;;3.70;99.90;;;;;;5056880;28;20184;-88
2022/01/08 12:13:47;;;;;;;2.03;1.20;;;3.70;99.90;;;;;;5074388;28;20624;-88
2022/01/08 12:16:32;;;;;;;1.70;1.20;;;3.60;99.90;;;;;;5056534;28;20211;-87
2022/01/08 12:18:58;;;;;;;2.70;1.40;;;3.60;99.90;;;;;;5056355;28;20173;-88
2022/01/08 12:21:30;;;;;;;1.93;1.30;;;3.60;99.90;;;;;;5040310;28;20204;-88
2022/01/08 12:23:59;;;;;;;3.63;1.13;;;3.70;99.90;;;;;;5056475;28;20200;-88
2022/01/08 12:26:25;;;;;;;3.63;1.30;;;3.70;99.90;;;;;;5056291;28;20177;-88
2022/01/08 12:28:57;;;;;;;6.83;1.23;;;3.70;99.90;;;;;;5072290;28;20203;-88
2022/01/08 12:31:24;;;;;;;3.23;1.43;;;3.70;99.90;;;;;;5040081;28;20687;-88
2022/01/08 12:34:27;;;;;;;4.20;2.63;;;3.70;99.90;;;;;;5073368;28;20189;-88
2022/01/08 12:37:03;;;;;;;4.47;2.63;;;3.60;99.90;;;;;;5056351;28;20181;-88
2022/01/08 12:39:44;;;;;;;1.97;1.50;;;3.60;99.90;;;;;;5055829;28;20265;-88
2022/01/08 12:42:29;;;;;;;1.57;1.30;;;3.60;99.90;;;;;;5056315;28;20304;-88
2022/01/08 12:45:13;;;;;;;1.77;1.20;;;3.60;99.90;;;;;;5056392;28;20637;-88
2022/01/08 12:47:43;;;;;;;4.27;1.70;;;3.70;99.90;;;;;;5056288;28;20187;-88
2022/01/08 12:50:47;;;;;;;4.17;2.20;;;3.70;99.90;;;;;;5073020;28;20199;-88
2022/01/08 12:53:22;;;;;;;5.70;2.13;;;3.70;99.90;;;;;;4976106;28;20176;-88
2022/01/08 12:55:54;;;;;;;2.97;2.03;;;3.80;99.90;;;;;;4976202;28;20223;-88
2022/01/08 12:58:27;;;;;;;3.33;1.20;;;3.90;99.90;;;;;;5005749;28;20181;-88
2022/01/08 13:00:57;;;;;;;2.07;1.50;;;3.90;99.90;;;;;;5055390;28;20216;-88
2022/01/08 13:03:31;;;;;;;3.03;1.97;;;4.00;99.90;;;;;;5039245;28;20184;-88
2022/01/08 13:06:17;;;;;;;2.03;1.30;;;4.00;99.90;;;;;;5039293;28;20185;-88
2022/01/08 13:08:48;;;;;;;2.73;1.27;;;4.00;99.90;;;;;;5037856;28;20181;-88
2022/01/08 13:11:21;;;;;;;3.60;1.93;;;4.00;99.90;;;;;;5038319;28;20196;-88
2022/01/08 13:13:57;;;;;;;2.90;1.83;;;4.10;99.90;;;;;;5038905;28;20192;-88
2022/01/08 13:16:39;;;;;;;3.40;2.00;;;4.10;99.90;;;;;;5039024;28;20204;-87
2022/01/08 13:19:07;;;;;;;5.77;2.80;;;4.20;99.90;;;;;;5038439;28;20193;-88
2022/01/08 13:21:36;;;;;;;3.83;2.20;;;4.20;99.90;;;;;;5038863;28;20219;-88
2022/01/08 13:24:13;;;;;;;2.73;2.00;;;4.20;99.90;;;;;;5039231;28;20269;-88
2022/01/08 13:26:42;;;;;;;4.80;2.30;;;4.20;99.90;;;;;;5038859;28;20173;-88
2022/01/08 13:29:20;;;;;;;3.43;1.90;;;4.20;99.90;;;;;;5035304;28;20193;-88
2022/01/08 13:31:53;;;;;;;4.27;1.43;;;4.20;99.90;;;;;;5035282;28;20248;-88
2022/01/08 13:34:20;;;;;;;4.23;1.80;;;4.10;99.90;;;;;;5019047;28;20178;-88
2022/01/08 13:36:58;;;;;;;3.73;1.33;;;4.10;99.90;;;;;;5035455;28;20313;-88
2022/01/08 13:39:33;;;;;;;2.40;2.10;;;4.10;99.90;;;;;;5035678;28;20170;-88
2022/01/08 13:42:14;;;;;;;4.10;1.60;;;4.00;99.90;;;;;;5035585;28;20201;-89
2022/01/08 13:44:45;;;;;;;4.20;2.17;;;4.00;99.90;;;;;;5019384;28;20170;-88